Stillwell, Georgia
Current Conditions -  °F | °C
As of 6:15 AM on Sunday 21 Dec 2014 (Local Time) from KJYL Reporting Station
Drizzle Drizzle  
Wind Chill: 43°   Ceiling: 500
Heat Index: 46°   Visibility: 7mi
Dew Point: 46°   Wind: 6mph
Humidity: 99%   Direction: 60°ENE
Pressure: 30.21"   Gusts: NA
Location:  32.4496°N, 81.3721°W
Report Text: KJYL 211115Z AUTO 06005KT 7SM -DZ OVC005 08/08 A3021 RMK AO2 T00770076
Loading
Personal Weather Stations






























Interactive Weather Map New forecast layout! Learn more

10-Day Weather Forecast

Advertisements
Track Severe Weather on mobile